Empalme, Argentina
Current Conditions -  °F | °C
As of 5:00 PM on Sunday 23 Nov 2014 (Local Time) from SADF Reporting Station
Clear Clear  
Wind Chill: 82°   Ceiling: Unl
Heat Index: 82°   Visibility: 6mi
Dew Point: 59°   Wind: 10mph
Humidity: 45%   Direction: 340°NNW
Pressure: 29.74"   Gusts: NA
Location:  34.43°S, 59°W
Report Text: SADF 232000Z 34009KT CAVOK 28/15 Q1007
Loading
Personal Weather Stations






























Interactive Weather Map New forecast layout! Learn more

10-Day Weather Forecast

Advertisements
Track Severe Weather on mobile